sensor_id;sensor_type;location;lat;lon;timestamp;pressure;altitude;pressure_sealevel;temperature;humidity
65872;BME280;52653;50.080;21.992;2023-04-01T00:02:25;97352.98;;;9.98;80.39
65872;BME280;52653;50.080;21.992;2023-04-01T00:05:09;97346.96;;;10.00;80.27
65872;BME280;52653;50.080;21.992;2023-04-01T00:08:02;97349.25;;;10.00;80.32
65872;BME280;52653;50.080;21.992;2023-04-01T00:10:56;97354.28;;;9.96;80.27
65872;BME280;52653;50.080;21.992;2023-04-01T00:13:49;97357.11;;;9.90;80.29
65872;BME280;52653;50.080;21.992;2023-04-01T00:16:22;97358.76;;;9.84;80.35
65872;BME280;52653;50.080;21.992;2023-04-01T00:19:15;97357.69;;;9.79;80.37
65872;BME280;52653;50.080;21.992;2023-04-01T00:21:58;97360.71;;;9.72;80.67
65872;BME280;52653;50.080;21.992;2023-04-01T00:24:41;97351.48;;;9.66;80.60
65872;BME280;52653;50.080;21.992;2023-04-01T00:27:18;97347.73;;;9.63;80.84
65872;BME280;52653;50.080;21.992;2023-04-01T00:29:51;97345.33;;;9.61;80.70
65872;BME280;52653;50.080;21.992;2023-04-01T00:32:34;97345.83;;;9.62;80.83
65872;BME280;52653;50.080;21.992;2023-04-01T00:35:28;97348.30;;;9.62;80.86
65872;BME280;52653;50.080;21.992;2023-04-01T00:38:22;97348.86;;;9.61;80.95
65872;BME280;52653;50.080;21.992;2023-04-01T00:40:58;97343.77;;;9.61;80.94
65872;BME280;52653;50.080;21.992;2023-04-01T00:43:33;97345.36;;;9.61;81.00
65872;BME280;52653;50.080;21.992;2023-04-01T00:46:17;97341.04;;;9.59;81.04
65872;BME280;52653;50.080;21.992;2023-04-01T00:48:52;97342.79;;;9.55;81.03
65872;BME280;52653;50.080;21.992;2023-04-01T00:51:31;97340.29;;;9.50;81.25
65872;BME280;52653;50.080;21.992;2023-04-01T00:54:06;97336.81;;;9.44;81.31
65872;BME280;52653;50.080;21.992;2023-04-01T00:56:45;97334.36;;;9.39;81.46
65872;BME280;52653;50.080;21.992;2023-04-01T00:59:42;97332.56;;;9.35;81.62
65872;BME280;52653;50.080;21.992;2023-04-01T01:02:16;97332.48;;;9.33;81.90
65872;BME280;52653;50.080;21.992;2023-04-01T01:05:11;97330.43;;;9.31;82.04
65872;BME280;52653;50.080;21.992;2023-04-01T01:07:51;97329.92;;;9.31;82.11
65872;BME280;52653;50.080;21.992;2023-04-01T01:10:34;97331.04;;;9.34;82.16
65872;BME280;52653;50.080;21.992;2023-04-01T01:13:14;97332.84;;;9.37;82.10
65872;BME280;52653;50.080;21.992;2023-04-01T01:16:02;97332.58;;;9.40;82.12
65872;BME280;52653;50.080;21.992;2023-04-01T01:19:02;97330.10;;;9.41;82.03
65872;BME280;52653;50.080;21.992;2023-04-01T01:22:11;97327.98;;;9.41;81.94
65872;BME280;52653;50.080;21.992;2023-04-01T01:25:04;97327.52;;;9.39;82.08
65872;BME280;52653;50.080;21.992;2023-04-01T01:28:04;97322.05;;;9.36;82.05
65872;BME280;52653;50.080;21.992;2023-04-01T01:30:58;97322.83;;;9.33;82.23
65872;BME280;52653;50.080;21.992;2023-04-01T01:34:02;97315.91;;;9.31;82.16
65872;BME280;52653;50.080;21.992;2023-04-01T01:36:43;97313.49;;;9.30;82.12
65872;BME280;52653;50.080;21.992;2023-04-01T01:39:33;97311.64;;;9.28;82.26
65872;BME280;52653;50.080;21.992;2023-04-01T01:42:28;97314.12;;;9.26;82.35
65872;BME280;52653;50.080;21.992;2023-04-01T01:45:04;97317.83;;;9.26;82.33
65872;BME280;52653;50.080;21.992;2023-04-01T01:48:04;97323.98;;;9.25;82.51
65872;BME280;52653;50.080;21.992;2023-04-01T01:51:00;97325.84;;;9.22;82.56
65872;BME280;52653;50.080;21.992;2023-04-01T01:53:38;97330.98;;;9.20;82.59
65872;BME280;52653;50.080;21.992;2023-04-01T01:56:12;97332.65;;;9.17;82.78
65872;BME280;52653;50.080;21.992;2023-04-01T01:58:50;97334.94;;;9.17;82.67
65872;BME280;52653;50.080;21.992;2023-04-01T02:01:28;97332.15;;;9.17;82.85
65872;BME280;52653;50.080;21.992;2023-04-01T02:04:12;97333.38;;;9.17;82.98
65872;BME280;52653;50.080;21.992;2023-04-01T02:07:09;97332.91;;;9.14;83.09
65872;BME280;52653;50.080;21.992;2023-04-01T02:09:55;97340.90;;;9.10;83.11
65872;BME280;52653;50.080;21.992;2023-04-01T02:12:49;97342.59;;;9.07;83.30
65872;BME280;52653;50.080;21.992;2023-04-01T02:15:47;97346.31;;;9.05;83.27
65872;BME280;52653;50.080;21.992;2023-04-01T02:18:24;97348.92;;;9.05;83.29
65872;BME280;52653;50.080;21.992;2023-04-01T02:21:03;97351.02;;;9.06;83.33
65872;BME280;52653;50.080;21.992;2023-04-01T02:23:41;97345.10;;;9.05;83.30
65872;BME280;52653;50.080;21.992;2023-04-01T02:26:17;97347.36;;;9.06;83.39
65872;BME280;52653;50.080;21.992;2023-04-01T02:29:11;97347.17;;;9.06;83.38
65872;BME280;52653;50.080;21.992;2023-04-01T02:31:55;97344.73;;;9.05;83.30
65872;BME280;52653;50.080;21.992;2023-04-01T02:34:48;97346.46;;;9.06;83.19
65872;BME280;52653;50.080;21.992;2023-04-01T02:37:24;97345.09;;;9.06;83.13
65872;BME280;52653;50.080;21.992;2023-04-01T02:40:00;97351.78;;;9.04;83.06
65872;BME280;52653;50.080;21.992;2023-04-01T02:42:43;97350.80;;;9.01;83.15
65872;BME280;52653;50.080;21.992;2023-04-01T02:45:20;97349.91;;;8.97;83.33
65872;BME280;52653;50.080;21.992;2023-04-01T02:48:13;97350.23;;;8.92;83.31
65872;BME280;52653;50.080;21.992;2023-04-01T02:50:45;97350.14;;;8.89;83.31
65872;BME280;52653;50.080;21.992;2023-04-01T02:53:29;97353.85;;;8.88;83.34
65872;BME280;52653;50.080;21.992;2023-04-01T02:56:21;97353.54;;;8.86;83.43
65872;BME280;52653;50.080;21.992;2023-04-01T02:58:54;97359.12;;;8.87;83.50
65872;BME280;52653;50.080;21.992;2023-04-01T03:01:40;97360.34;;;8.87;83.40
65872;BME280;52653;50.080;21.992;2023-04-01T03:04:15;97359.23;;;8.89;83.37
65872;BME280;52653;50.080;21.992;2023-04-01T03:06:51;97362.98;;;8.93;83.31
65872;BME280;52653;50.080;21.992;2023-04-01T03:09:27;97367.89;;;8.97;83.32
65872;BME280;52653;50.080;21.992;2023-04-01T03:12:01;97366.41;;;9.00;83.26
65872;BME280;52653;50.080;21.992;2023-04-01T03:14:44;97368.05;;;9.03;83.08
65872;BME280;52653;50.080;21.992;2023-04-01T03:17:26;97365.20;;;9.05;82.90
65872;BME280;52653;50.080;21.992;2023-04-01T03:20:19;97370.07;;;9.06;82.93
65872;BME280;52653;50.080;21.992;2023-04-01T03:22:53;97368.02;;;9.05;82.72
65872;BME280;52653;50.080;21.992;2023-04-01T03:25:35;97369.05;;;9.05;82.75
65872;BME280;52653;50.080;21.992;2023-04-01T03:28:28;97368.92;;;9.04;82.64
65872;BME280;52653;50.080;21.992;2023-04-01T03:31:04;97371.07;;;9.02;82.49
65872;BME280;52653;50.080;21.992;2023-04-01T03:33:51;97374.80;;;9.00;82.49
65872;BME280;52653;50.080;21.992;2023-04-01T03:36:34;97375.90;;;8.98;82.44
65872;BME280;52653;50.080;21.992;2023-04-01T03:39:20;97377.91;;;8.95;82.36
65872;BME280;52653;50.080;21.992;2023-04-01T03:41:56;97376.65;;;8.92;82.39
65872;BME280;52653;50.080;21.992;2023-04-01T03:44:40;97379.85;;;8.90;82.42
65872;BME280;52653;50.080;21.992;2023-04-01T03:47:35;97381.96;;;8.89;82.40
65872;BME280;52653;50.080;21.992;2023-04-01T03:50:09;97378.55;;;8.85;82.45
65872;BME280;52653;50.080;21.992;2023-04-01T03:52:42;97383.75;;;8.81;82.36
65872;BME280;52653;50.080;21.992;2023-04-01T03:55:15;97385.97;;;8.78;82.48
65872;BME280;52653;50.080;21.992;2023-04-01T03:58:09;97387.45;;;8.74;82.37
65872;BME280;52653;50.080;21.992;2023-04-01T04:00:44;97387.58;;;8.70;82.28
65872;BME280;52653;50.080;21.992;2023-04-01T04:03:37;97383.64;;;8.68;82.12
65872;BME280;52653;50.080;21.992;2023-04-01T04:06:32;97385.59;;;8.67;81.56
65872;BME280;52653;50.080;21.992;2023-04-01T04:09:26;97384.98;;;8.70;81.28
65872;BME280;52653;50.080;21.992;2023-04-01T04:12:19;97386.31;;;8.72;81.08
65872;BME280;52653;50.080;21.992;2023-04-01T04:15:04;97385.88;;;8.74;80.91
65872;BME280;52653;50.080;21.992;2023-04-01T04:17:37;97387.77;;;8.76;80.73
65872;BME280;52653;50.080;21.992;2023-04-01T04:20:14;97389.31;;;8.77;80.61
65872;BME280;52653;50.080;21.992;2023-04-01T04:22:50;97392.28;;;8.77;80.56
65872;BME280;52653;50.080;21.992;2023-04-01T04:25:26;97391.23;;;8.77;80.49
65872;BME280;52653;50.080;21.992;2023-04-01T04:28:01;97395.08;;;8.76;80.24
65872;BME280;52653;50.080;21.992;2023-04-01T04:30:34;97392.48;;;8.76;80.22
65872;BME280;52653;50.080;21.992;2023-04-01T04:33:27;97388.97;;;8.76;80.08
65872;BME280;52653;50.080;21.992;2023-04-01T04:36:07;97387.92;;;8.77;80.06
65872;BME280;52653;50.080;21.992;2023-04-01T04:39:00;97385.73;;;8.80;79.92
65872;BME280;52653;50.080;21.992;2023-04-01T04:41:54;97381.05;;;8.84;79.97
65872;BME280;52653;50.080;21.992;2023-04-01T04:44:32;97387.98;;;8.86;79.61
65872;BME280;52653;50.080;21.992;2023-04-01T04:47:04;97392.35;;;8.86;79.67
65872;BME280;52653;50.080;21.992;2023-04-01T04:49:40;97387.23;;;8.88;79.70
65872;BME280;52653;50.080;21.992;2023-04-01T04:52:33;97390.23;;;8.87;79.53
65872;BME280;52653;50.080;21.992;2023-04-01T04:55:26;97385.30;;;8.82;79.42
65872;BME280;52653;50.080;21.992;2023-04-01T04:58:19;97394.25;;;8.81;79.43
65872;BME280;52653;50.080;21.992;2023-04-01T05:01:14;97394.89;;;8.83;79.29
65872;BME280;52653;50.080;21.992;2023-04-01T05:03:48;97394.48;;;8.85;79.19
65872;BME280;52653;50.080;21.992;2023-04-01T05:06:31;97396.79;;;8.90;79.13
65872;BME280;52653;50.080;21.992;2023-04-01T05:09:08;97401.36;;;8.95;78.96
65872;BME280;52653;50.080;21.992;2023-04-01T05:12:01;97398.60;;;8.99;78.83
65872;BME280;52653;50.080;21.992;2023-04-01T05:14:48;97398.71;;;9.01;78.71
65872;BME280;52653;50.080;21.992;2023-04-01T05:17:25;97402.20;;;9.02;78.48
65872;BME280;52653;50.080;21.992;2023-04-01T05:20:21;97400.75;;;9.04;78.43
65872;BME280;52653;50.080;21.992;2023-04-01T05:22:58;97400.13;;;9.07;78.26
65872;BME280;52653;50.080;21.992;2023-04-01T05:25:42;97400.88;;;9.10;78.03
65872;BME280;52653;50.080;21.992;2023-04-01T05:28:18;97405.23;;;9.17;77.84
65872;BME280;52653;50.080;21.992;2023-04-01T05:31:03;97408.06;;;9.27;77.73
65872;BME280;52653;50.080;21.992;2023-04-01T05:33:57;97411.27;;;9.36;77.02
65872;BME280;52653;50.080;21.992;2023-04-01T05:36:31;97404.83;;;9.46;77.01
65872;BME280;52653;50.080;21.992;2023-04-01T05:39:04;97401.97;;;9.53;76.73
65872;BME280;52653;50.080;21.992;2023-04-01T05:41:40;97402.45;;;9.60;76.57
65872;BME280;52653;50.080;21.992;2023-04-01T05:44:15;97400.51;;;9.66;76.34
65872;BME280;52653;50.080;21.992;2023-04-01T05:47:04;97398.10;;;9.70;76.08
65872;BME280;52653;50.080;21.992;2023-04-01T05:49:48;97404.19;;;9.76;76.00
65872;BME280;52653;50.080;21.992;2023-04-01T05:52:22;97404.30;;;9.83;75.31
65872;BME280;52653;50.080;21.992;2023-04-01T05:54:58;97406.94;;;9.98;75.19
65872;BME280;52653;50.080;21.992;2023-04-01T05:57:36;97402.61;;;10.17;74.48
65872;BME280;52653;50.080;21.992;2023-04-01T06:00:20;97405.89;;;10.39;74.14
65872;BME280;52653;50.080;21.992;2023-04-01T06:03:03;97405.59;;;10.57;73.04
65872;BME280;52653;50.080;21.992;2023-04-01T06:05:43;97414.09;;;10.69;72.73
65872;BME280;52653;50.080;21.992;2023-04-01T06:08:17;97409.34;;;10.78;72.13
65872;BME280;52653;50.080;21.992;2023-04-01T06:11:21;97403.38;;;10.87;72.15
65872;BME280;52653;50.080;21.992;2023-04-01T06:14:19;97401.36;;;10.95;71.57
65872;BME280;52653;50.080;21.992;2023-04-01T06:17:24;97403.15;;;10.98;70.98
65872;BME280;52653;50.080;21.992;2023-04-01T06:20:08;97407.32;;;10.95;70.83
65872;BME280;52653;50.080;21.992;2023-04-01T06:23:06;97407.25;;;10.97;71.37
65872;BME280;52653;50.080;21.992;2023-04-01T06:26:14;97406.26;;;11.09;71.03
65872;BME280;52653;50.080;21.992;2023-04-01T06:36:04;97408.48;;;11.89;68.32
65872;BME280;52653;50.080;21.992;2023-04-01T06:39:15;97409.45;;;12.24;67.64
65872;BME280;52653;50.080;21.992;2023-04-01T06:42:24;97410.55;;;12.35;65.17
65872;BME280;52653;50.080;21.992;2023-04-01T06:45:31;97408.02;;;12.45;65.25
65872;BME280;52653;50.080;21.992;2023-04-01T06:48:38;97411.84;;;12.50;65.08
65872;BME280;52653;50.080;21.992;2023-04-01T06:51:45;97412.95;;;12.48;65.17
65872;BME280;52653;50.080;21.992;2023-04-01T06:54:46;97418.18;;;12.45;65.30
65872;BME280;52653;50.080;21.992;2023-04-01T06:57:42;97415.14;;;12.43;65.03
65872;BME280;52653;50.080;21.992;2023-04-01T07:00:30;97417.77;;;12.38;64.61
65872;BME280;52653;50.080;21.992;2023-04-01T07:03:29;97415.61;;;12.40;64.84
65872;BME280;52653;50.080;21.992;2023-04-01T07:06:30;97416.52;;;12.43;64.94
65872;BME280;52653;50.080;21.992;2023-04-01T07:09:27;97420.41;;;12.39;64.49
65872;BME280;52653;50.080;21.992;2023-04-01T07:12:27;97417.61;;;12.47;64.98
65872;BME280;52653;50.080;21.992;2023-04-01T07:15:48;97417.98;;;12.57;64.23
65872;BME280;52653;50.080;21.992;2023-04-01T07:18:47;97417.37;;;12.71;63.71
65872;BME280;52653;50.080;21.992;2023-04-01T07:21:44;97424.75;;;12.99;63.38
65872;BME280;52653;50.080;21.992;2023-04-01T07:24:59;97426.53;;;13.21;62.79
65872;BME280;52653;50.080;21.992;2023-04-01T07:28:00;97431.99;;;13.36;62.49
65872;BME280;52653;50.080;21.992;2023-04-01T07:31:07;97437.67;;;13.61;61.83
65872;BME280;52653;50.080;21.992;2023-04-01T07:34:04;97430.44;;;13.76;60.86
65872;BME280;52653;50.080;21.992;2023-04-01T07:36:55;97429.03;;;14.00;60.44
65872;BME280;52653;50.080;21.992;2023-04-01T07:39:51;97423.61;;;14.38;59.75
65872;BME280;52653;50.080;21.992;2023-04-01T07:43:05;97427.59;;;14.67;58.69
65872;BME280;52653;50.080;21.992;2023-04-01T07:46:10;97428.48;;;14.83;58.08
65872;BME280;52653;50.080;21.992;2023-04-01T07:49:03;97432.58;;;14.89;57.37
65872;BME280;52653;50.080;21.992;2023-04-01T07:52:02;97429.26;;;14.92;57.39
65872;BME280;52653;50.080;21.992;2023-04-01T07:54:59;97428.86;;;14.79;56.98
65872;BME280;52653;50.080;21.992;2023-04-01T07:57:52;97434.43;;;14.64;57.52
65872;BME280;52653;50.080;21.992;2023-04-01T08:00:41;97432.89;;;14.53;57.96
65872;BME280;52653;50.080;21.992;2023-04-01T08:03:51;97434.96;;;14.43;58.42
65872;BME280;52653;50.080;21.992;2023-04-01T08:06:51;97425.59;;;14.48;59.25
65872;BME280;52653;50.080;21.992;2023-04-01T08:09:32;97427.96;;;14.49;58.64
65872;BME280;52653;50.080;21.992;2023-04-01T08:12:53;97430.67;;;14.58;58.85
65872;BME280;52653;50.080;21.992;2023-04-01T08:16:20;97430.07;;;14.77;58.60
65872;BME280;52653;50.080;21.992;2023-04-01T08:19:18;97428.79;;;14.84;56.99
65872;BME280;52653;50.080;21.992;2023-04-01T08:22:18;97434.08;;;14.84;56.76
65872;BME280;52653;50.080;21.992;2023-04-01T08:25:05;97433.22;;;14.90;56.53
65872;BME280;52653;50.080;21.992;2023-04-01T08:27:55;97435.71;;;14.90;56.74
65872;BME280;52653;50.080;21.992;2023-04-01T08:30:38;97440.00;;;14.85;56.75
65872;BME280;52653;50.080;21.992;2023-04-01T08:33:19;97439.02;;;14.84;56.88
65872;BME280;52653;50.080;21.992;2023-04-01T08:36:03;97431.39;;;14.85;57.48
65872;BME280;52653;50.080;21.992;2023-04-01T08:39:02;97433.11;;;14.86;56.37
65872;BME280;52653;50.080;21.992;2023-04-01T08:42:23;97432.49;;;14.84;56.16
65872;BME280;52653;50.080;21.992;2023-04-01T08:45:50;97429.34;;;15.00;56.93
65872;BME280;52653;50.080;21.992;2023-04-01T08:52:07;97424.20;;;15.23;55.22
65872;BME280;52653;50.080;21.992;2023-04-01T08:58:28;97431.04;;;14.88;56.99
65872;BME280;52653;50.080;21.992;2023-04-01T09:01:35;97428.30;;;14.87;57.42
65872;BME280;52653;50.080;21.992;2023-04-01T09:04:39;97430.49;;;14.98;57.70
65872;BME280;52653;50.080;21.992;2023-04-01T09:07:38;97428.90;;;15.27;56.62
65872;BME280;52653;50.080;21.992;2023-04-01T09:10:49;97422.36;;;15.59;56.16
65872;BME280;52653;50.080;21.992;2023-04-01T09:14:09;97422.00;;;15.63;55.08
65872;BME280;52653;50.080;21.992;2023-04-01T09:20:23;97425.96;;;15.17;56.74
65872;BME280;52653;50.080;21.992;2023-04-01T09:23:35;97432.16;;;14.84;56.70
65872;BME280;52653;50.080;21.992;2023-04-01T09:26:43;97435.09;;;14.61;57.47
65872;BME280;52653;50.080;21.992;2023-04-01T09:33:27;97437.95;;;14.81;57.82
65872;BME280;52653;50.080;21.992;2023-04-01T09:36:32;97434.25;;;14.84;57.07
65872;BME280;52653;50.080;21.992;2023-04-01T09:39:30;97435.63;;;14.62;57.25
65872;BME280;52653;50.080;21.992;2023-04-01T09:42:32;97440.08;;;14.40;57.75
65872;BME280;52653;50.080;21.992;2023-04-01T09:45:47;97439.34;;;14.16;58.15
65872;BME280;52653;50.080;21.992;2023-04-01T09:52:16;97435.72;;;14.18;59.35
65872;BME280;52653;50.080;21.992;2023-04-01T09:55:25;97433.73;;;14.36;58.89
65872;BME280;52653;50.080;21.992;2023-04-01T09:58:44;97434.10;;;14.39;58.23
65872;BME280;52653;50.080;21.992;2023-04-01T10:15:34;97419.13;;;15.00;57.30
65872;BME280;52653;50.080;21.992;2023-04-01T10:18:46;97421.92;;;15.00;55.70
65872;BME280;52653;50.080;21.992;2023-04-01T10:22:01;97420.79;;;14.82;54.85
65872;BME280;52653;50.080;21.992;2023-04-01T10:25:03;97418.64;;;14.52;54.99
65872;BME280;52653;50.080;21.992;2023-04-01T10:31:41;97413.50;;;14.59;56.49
65872;BME280;52653;50.080;21.992;2023-04-01T10:38:31;97406.28;;;14.99;56.78
65872;BME280;52653;50.080;21.992;2023-04-01T10:45:30;97399.86;;;15.28;55.34
65872;BME280;52653;50.080;21.992;2023-04-01T10:48:24;97399.75;;;15.24;55.55
65872;BME280;52653;50.080;21.992;2023-04-01T10:51:39;97399.70;;;15.31;55.92
65872;BME280;52653;50.080;21.992;2023-04-01T10:54:42;97397.65;;;15.40;55.41
65872;BME280;52653;50.080;21.992;2023-04-01T11:12:26;97401.15;;;16.52;50.92
65872;BME280;52653;50.080;21.992;2023-04-01T11:15:37;97398.14;;;16.56;50.80
65872;BME280;52653;50.080;21.992;2023-04-01T11:22:08;97394.17;;;16.62;49.29
65872;BME280;52653;50.080;21.992;2023-04-01T11:29:26;97395.98;;;16.99;46.61
65872;BME280;52653;50.080;21.992;2023-04-01T11:32:31;97394.80;;;17.07;46.69
65872;BME280;52653;50.080;21.992;2023-04-01T11:39:00;97398.31;;;17.07;45.13
65872;BME280;52653;50.080;21.992;2023-04-01T11:42:01;97391.86;;;17.12;45.94
65872;BME280;52653;50.080;21.992;2023-04-01T11:45:01;97395.56;;;17.17;46.79
65872;BME280;52653;50.080;21.992;2023-04-01T11:48:23;97397.81;;;17.18;45.45
65872;BME280;52653;50.080;21.992;2023-04-01T11:54:28;97393.56;;;17.43;45.58
65872;BME280;52653;50.080;21.992;2023-04-01T11:57:31;97389.30;;;17.62;44.82
65872;BME280;52653;50.080;21.992;2023-04-01T12:00:22;97390.73;;;17.76;44.50
65872;BME280;52653;50.080;21.992;2023-04-01T12:03:26;97396.22;;;17.84;44.35
65872;BME280;52653;50.080;21.992;2023-04-01T12:06:08;97399.61;;;18.10;44.34
65872;BME280;52653;50.080;21.992;2023-04-01T12:08:49;97400.05;;;18.17;43.56
65872;BME280;52653;50.080;21.992;2023-04-01T12:11:29;97407.27;;;18.07;43.24
65872;BME280;52653;50.080;21.992;2023-04-01T12:14:21;97400.22;;;17.85;43.86
65872;BME280;52653;50.080;21.992;2023-04-01T12:17:07;97402.04;;;17.68;44.16
65872;BME280;52653;50.080;21.992;2023-04-01T12:19:47;97404.05;;;17.42;44.54
65872;BME280;52653;50.080;21.992;2023-04-01T12:22:33;97397.90;;;17.30;46.32
65872;BME280;52653;50.080;21.992;2023-04-01T12:25:24;97404.63;;;17.20;46.79
65872;BME280;52653;50.080;21.992;2023-04-01T12:28:13;97411.86;;;17.31;47.05
65872;BME280;52653;50.080;21.992;2023-04-01T12:30:55;97410.98;;;17.39;46.32
65872;BME280;52653;50.080;21.992;2023-04-01T12:33:54;97406.95;;;17.39;45.64
65872;BME280;52653;50.080;21.992;2023-04-01T12:36:55;97411.84;;;17.40;46.02
65872;BME280;52653;50.080;21.992;2023-04-01T12:40:05;97405.16;;;17.28;46.48
65872;BME280;52653;50.080;21.992;2023-04-01T12:42:57;97403.16;;;17.26;46.87
65872;BME280;52653;50.080;21.992;2023-04-01T12:45:34;97403.80;;;17.30;46.58
65872;BME280;52653;50.080;21.992;2023-04-01T12:48:30;97403.56;;;17.33;46.73
65872;BME280;52653;50.080;21.992;2023-04-01T12:51:35;97403.23;;;17.39;46.30
65872;BME280;52653;50.080;21.992;2023-04-01T12:54:42;97414.11;;;17.26;45.53
65872;BME280;52653;50.080;21.992;2023-04-01T12:57:38;97409.65;;;17.02;46.30
65872;BME280;52653;50.080;21.992;2023-04-01T13:00:30;97408.45;;;16.75;46.66
65872;BME280;52653;50.080;21.992;2023-04-01T13:03:23;97406.08;;;16.50;47.57
65872;BME280;52653;50.080;21.992;2023-04-01T13:09:16;97413.71;;;16.23;48.81
65872;BME280;52653;50.080;21.992;2023-04-01T13:12:36;97415.17;;;16.13;49.03
65872;BME280;52653;50.080;21.992;2023-04-01T13:15:34;97420.04;;;16.12;49.04
65872;BME280;52653;50.080;21.992;2023-04-01T13:18:20;97421.00;;;16.17;49.74
65872;BME280;52653;50.080;21.992;2023-04-01T13:21:18;97421.34;;;16.14;49.47
65872;BME280;52653;50.080;21.992;2023-04-01T13:24:25;97425.81;;;16.01;49.52
65872;BME280;52653;50.080;21.992;2023-04-01T13:27:28;97425.52;;;15.82;50.34
65872;BME280;52653;50.080;21.992;2023-04-01T13:30:26;97424.36;;;15.80;50.64
65872;BME280;52653;50.080;21.992;2023-04-01T13:33:12;97428.31;;;15.85;51.16
65872;BME280;52653;50.080;21.992;2023-04-01T13:36:26;97427.83;;;15.94;51.52
65872;BME280;52653;50.080;21.992;2023-04-01T13:39:20;97434.48;;;16.01;52.22
65872;BME280;52653;50.080;21.992;2023-04-01T13:42:16;97438.64;;;16.15;52.65
65872;BME280;52653;50.080;21.992;2023-04-01T13:45:15;97444.85;;;16.17;52.77
65872;BME280;52653;50.080;21.992;2023-04-01T13:54:30;97441.48;;;16.50;53.12
65872;BME280;52653;50.080;21.992;2023-04-01T13:57:26;97436.25;;;16.76;52.67
65872;BME280;52653;50.080;21.992;2023-04-01T14:00:29;97439.05;;;16.90;52.46
65872;BME280;52653;50.080;21.992;2023-04-01T14:06:56;97444.30;;;16.80;49.93
65872;BME280;52653;50.080;21.992;2023-04-01T14:10:04;97441.02;;;16.81;51.01
65872;BME280;52653;50.080;21.992;2023-04-01T14:13:01;97440.80;;;16.96;50.89
65872;BME280;52653;50.080;21.992;2023-04-01T14:15:48;97443.02;;;16.95;50.17
65872;BME280;52653;50.080;21.992;2023-04-01T14:19:01;97443.46;;;16.82;50.13
65872;BME280;52653;50.080;21.992;2023-04-01T14:21:55;97441.73;;;16.73;50.61
65872;BME280;52653;50.080;21.992;2023-04-01T14:25:10;97445.09;;;16.58;51.17
65872;BME280;52653;50.080;21.992;2023-04-01T14:28:16;97441.95;;;16.42;51.33
65872;BME280;52653;50.080;21.992;2023-04-01T14:31:34;97441.34;;;16.43;52.01
65872;BME280;52653;50.080;21.992;2023-04-01T14:34:33;97439.80;;;16.54;52.12
65872;BME280;52653;50.080;21.992;2023-04-01T14:37:32;97437.94;;;16.59;51.52
65872;BME280;52653;50.080;21.992;2023-04-01T14:40:28;97434.20;;;16.53;50.77
65872;BME280;52653;50.080;21.992;2023-04-01T14:50:30;97438.11;;;15.90;52.73
65872;BME280;52653;50.080;21.992;2023-04-01T14:53:28;97441.86;;;15.61;52.41
65872;BME280;52653;50.080;21.992;2023-04-01T14:56:41;97444.73;;;15.35;53.35
65872;BME280;52653;50.080;21.992;2023-04-01T15:06:00;97456.09;;;14.65;55.49
65872;BME280;52653;50.080;21.992;2023-04-01T15:09:08;97458.41;;;14.44;56.15
65872;BME280;52653;50.080;21.992;2023-04-01T15:12:05;97463.13;;;14.34;56.98
65872;BME280;52653;50.080;21.992;2023-04-01T15:15:22;97463.91;;;14.29;57.44
65872;BME280;52653;50.080;21.992;2023-04-01T15:18:24;97464.95;;;14.33;57.80
65872;BME280;52653;50.080;21.992;2023-04-01T15:21:39;97467.91;;;14.33;57.78
65872;BME280;52653;50.080;21.992;2023-04-01T15:24:46;97471.23;;;14.27;57.80
65872;BME280;52653;50.080;21.992;2023-04-01T15:27:43;97470.58;;;14.19;57.68
65872;BME280;52653;50.080;21.992;2023-04-01T15:30:34;97469.33;;;14.16;57.36
65872;BME280;52653;50.080;21.992;2023-04-01T15:36:27;97475.60;;;14.10;56.65
65872;BME280;52653;50.080;21.992;2023-04-01T15:39:18;97476.61;;;14.04;56.88
65872;BME280;52653;50.080;21.992;2023-04-01T15:42:16;97485.55;;;14.02;56.68
65872;BME280;52653;50.080;21.992;2023-04-01T15:45:22;97490.11;;;14.02;57.27
65872;BME280;52653;50.080;21.992;2023-04-01T15:48:33;97495.63;;;14.05;58.34
65872;BME280;52653;50.080;21.992;2023-04-01T15:51:45;97498.13;;;14.00;58.61
65872;BME280;52653;50.080;21.992;2023-04-01T15:54:59;97508.37;;;13.93;58.80
65872;BME280;52653;50.080;21.992;2023-04-01T15:57:43;97511.48;;;13.87;58.92
65872;BME280;52653;50.080;21.992;2023-04-01T16:00:47;97514.75;;;13.86;58.88
65872;BME280;52653;50.080;21.992;2023-04-01T16:03:50;97519.48;;;13.81;59.04
65872;BME280;52653;50.080;21.992;2023-04-01T16:06:55;97519.65;;;13.75;59.53
65872;BME280;52653;50.080;21.992;2023-04-01T16:13:10;97524.61;;;13.52;59.80
65872;BME280;52653;50.080;21.992;2023-04-01T16:16:34;97523.24;;;13.39;59.67
65872;BME280;52653;50.080;21.992;2023-04-01T16:19:41;97532.27;;;13.23;59.20
65872;BME280;52653;50.080;21.992;2023-04-01T16:22:40;97532.77;;;13.08;59.68
65872;BME280;52653;50.080;21.992;2023-04-01T16:25:40;97538.02;;;12.92;60.65
65872;BME280;52653;50.080;21.992;2023-04-01T16:28:25;97547.06;;;12.78;61.48
65872;BME280;52653;50.080;21.992;2023-04-01T16:31:23;97551.48;;;12.66;62.81
65872;BME280;52653;50.080;21.992;2023-04-01T16:34:14;97560.91;;;12.47;64.04
65872;BME280;52653;50.080;21.992;2023-04-01T16:37:12;97565.40;;;12.27;64.23
65872;BME280;52653;50.080;21.992;2023-04-01T16:40:16;97570.91;;;12.09;65.28
65872;BME280;52653;50.080;21.992;2023-04-01T16:43:23;97579.45;;;11.83;69.43
65872;BME280;52653;50.080;21.992;2023-04-01T16:46:25;97582.48;;;11.63;70.95
65872;BME280;52653;50.080;21.992;2023-04-01T16:49:39;97579.64;;;11.41;72.10
65872;BME280;52653;50.080;21.992;2023-04-01T16:52:40;97585.14;;;11.30;73.23
65872;BME280;52653;50.080;21.992;2023-04-01T16:55:49;97585.89;;;11.24;73.96
65872;BME280;52653;50.080;21.992;2023-04-01T16:58:57;97590.64;;;11.19;74.29
65872;BME280;52653;50.080;21.992;2023-04-01T17:01:54;97592.91;;;11.14;74.81
65872;BME280;52653;50.080;21.992;2023-04-01T17:04:57;97595.77;;;11.08;75.38